LIMG

Details ICAO LIMG (ALL)
Name Villanova d'Albenga-Riviera "Clemente Panero"
Region Italy
Timezone Europe/Rome (UTC+2.0)
Plans Departing 223
Arriving 235
Stats Elevation 148 ft / 45 m (AMSL)
Location 44.050600° 8.127430°
Runways 1
Magnetic Variation 2.611° E
Sunrise 2021-05-18 03:59:35 UTC / 2021-05-18 05:59:35 Local
Sunset 2021-05-18 18:51:05 UTC / 2021-05-18 20:51:05 Local
Advertisement - Login to hide

Runways

ID Width Length Bearing (true/mag) Surface Threshold Overrun Markings Lighting
09 148 ft / 45 m 4,686 ft / 1,428 m 92.92° / 90.31° ASPHALT 279 ft / 85 m 0 ft / 0 m VISUAL EDGE THRESHOLD REIL-OMNI
27 148 ft / 45 m 4,686 ft / 1,428 m 272.93° / 270.32° ASPHALT 0 ft / 0 m 417 ft / 127 m VISUAL EDGE THRESHOLD REIL-OMNI

Approach Navaids

Runway Type Ident Frequency Range Bearing (true/mag) Slope Elevation
27 LOC-LOC LBN 108.90 MHz 18 nm / 33 km 263.50° / 260.88° - 149 ft / 45 m (AMSL)

Map

Weather


0- 5 10 15 20 25 30 35+ Temperature / °C

Clouds and Precipitation
Forecast for 2021-03-22 12:00 UTC. Updated 2 months ago

Ground ~20,000 ft ~40,000 ft Winds

METAR

LIMG 181550Z VRB02KT 9999 FEW025 18/13 Q1011

TAF

Not found

Frequencies

Tower 123.85 MHz Albenga Tower
Warning: Do not use this data for real-world aviation or navigation. No guarantee of current accuracy is given.